createdAt,value
2019-01-30T00:00:59.388Z,98898.08
2019-01-30T00:03:28.848Z,98895.25
2019-01-30T00:05:58.526Z,98890.27
2019-01-30T00:08:27.837Z,98890.13
2019-01-30T00:10:57.252Z,98876.85
2019-01-30T00:13:26.715Z,98878.03
2019-01-30T00:15:56.840Z,98879.69
2019-01-30T00:18:26.356Z,98867.84
2019-01-30T00:20:56.041Z,98867.03
2019-01-30T00:23:25.411Z,98866.16
2019-01-30T00:25:54.805Z,98865.46
2019-01-30T00:28:24.074Z,98858.47
2019-01-30T00:30:53.448Z,98865.02
2019-01-30T00:33:22.800Z,98854.52
2019-01-30T00:35:52.104Z,98853.05
2019-01-30T00:38:21.403Z,98843.17
2019-01-30T00:40:50.725Z,98840.56
2019-01-30T00:43:20.110Z,98835.14
2019-01-30T00:45:49.573Z,98835.66
2019-01-30T00:48:18.937Z,98817.47
2019-01-30T00:50:48.170Z,98824.12
2019-01-30T00:53:17.532Z,98824.94
2019-01-30T00:55:46.805Z,98821.03
2019-01-30T00:58:16.138Z,98827.00
2019-01-30T01:00:45.518Z,98822.95
2019-01-30T01:03:14.809Z,98822.39
2019-01-30T01:05:44.110Z,98825.44
2019-01-30T01:08:13.550Z,98815.88
2019-01-30T01:10:43.069Z,98811.33
2019-01-30T01:13:14.583Z,98806.72
2019-01-30T01:15:43.758Z,98813.84
2019-01-30T01:18:13.042Z,98803.06
2019-01-30T01:20:42.352Z,98803.19
2019-01-30T01:23:12.064Z,98800.37
2019-01-30T01:25:41.378Z,98791.91
2019-01-30T01:28:10.678Z,98798.11
2019-01-30T01:30:40.430Z,98795.84
2019-01-30T01:33:09.902Z,98793.91
2019-01-30T01:35:39.192Z,98795.88
2019-01-30T01:38:08.567Z,98786.95
2019-01-30T01:40:37.988Z,98785.21
2019-01-30T01:43:07.266Z,98776.06
2019-01-30T01:45:36.573Z,98770.70
2019-01-30T01:48:06.230Z,98756.48
2019-01-30T01:50:35.525Z,98756.33
2019-01-30T01:53:05.157Z,98754.16
2019-01-30T01:55:34.606Z,98748.54
2019-01-30T01:58:04.289Z,98743.52
2019-01-30T02:00:35.561Z,98737.84
2019-01-30T02:03:05.159Z,98730.25
2019-01-30T02:05:34.423Z,98733.70
2019-01-30T02:08:04.061Z,98729.13
2019-01-30T02:10:35.643Z,98720.89
2019-01-30T02:13:05.508Z,98710.84
2019-01-30T02:15:34.889Z,98704.20
2019-01-30T02:18:04.598Z,98698.27
2019-01-30T02:20:35.357Z,98698.98
2019-01-30T02:23:05.093Z,98693.67
2019-01-30T02:25:34.456Z,98687.45
2019-01-30T02:28:03.966Z,98683.16
2019-01-30T02:30:33.347Z,98679.82
2019-01-30T02:33:02.710Z,98672.58
2019-01-30T02:35:32.058Z,98673.50
2019-01-30T02:38:01.373Z,98675.42
2019-01-30T02:40:30.633Z,98663.80
2019-01-30T02:42:59.931Z,98663.45
2019-01-30T02:45:29.340Z,98664.94
2019-01-30T02:47:58.632Z,98655.58
2019-01-30T02:50:28.008Z,98645.37
2019-01-30T02:52:57.486Z,98646.16
2019-01-30T02:55:26.813Z,98638.95
2019-01-30T02:57:56.116Z,98629.33
2019-01-30T03:00:34.115Z,98617.81
2019-01-30T03:03:03.798Z,98623.27
2019-01-30T03:05:33.900Z,98624.45
2019-01-30T03:08:03.210Z,98616.72
2019-01-30T03:10:32.609Z,98615.19
2019-01-30T03:13:01.891Z,98612.72
2019-01-30T03:15:31.229Z,98612.95
2019-01-30T03:18:00.746Z,98608.20
2019-01-30T03:20:30.459Z,98602.52
2019-01-30T03:22:59.854Z,98604.16
2019-01-30T03:25:29.167Z,98600.91
2019-01-30T03:27:58.464Z,98597.77
2019-01-30T03:30:30.526Z,98589.88
2019-01-30T03:33:00.136Z,98598.81
2019-01-30T03:35:30.355Z,98581.55
2019-01-30T03:37:59.649Z,98594.40
2019-01-30T03:40:29.401Z,98583.42
2019-01-30T03:42:58.769Z,98584.88
2019-01-30T03:45:28.132Z,98581.70
2019-01-30T03:47:57.398Z,98576.95
2019-01-30T03:50:26.708Z,98579.44
2019-01-30T03:52:56.016Z,98590.09
2019-01-30T03:55:25.343Z,98592.43
2019-01-30T03:57:54.647Z,98588.30
2019-01-30T04:00:27.356Z,98583.99
2019-01-30T04:02:56.784Z,98586.19
2019-01-30T04:05:26.071Z,98583.08
2019-01-30T04:07:55.422Z,98583.06
2019-01-30T04:10:25.282Z,98590.48
2019-01-30T04:12:54.551Z,98585.84
2019-01-30T04:15:23.905Z,98576.39
2019-01-30T04:17:53.774Z,98579.11
2019-01-30T04:20:23.507Z,98568.00
2019-01-30T04:22:53.299Z,98566.23
2019-01-30T04:25:22.653Z,98567.27
2019-01-30T04:27:52.219Z,98564.66
2019-01-30T04:30:26.020Z,98564.04
2019-01-30T04:32:55.338Z,98559.27
2019-01-30T04:35:24.604Z,98564.25
2019-01-30T04:37:54.272Z,98559.79
2019-01-30T04:40:23.582Z,98553.77
2019-01-30T04:42:53.490Z,98561.93
2019-01-30T04:45:26.192Z,98553.15
2019-01-30T04:47:55.744Z,98551.05
2019-01-30T04:50:25.133Z,98538.86
2019-01-30T04:52:54.596Z,98538.69
2019-01-30T04:55:23.919Z,98538.36
2019-01-30T04:57:53.218Z,98541.02
2019-01-30T05:00:24.987Z,98535.51
2019-01-30T05:02:55.066Z,98532.06
2019-01-30T05:05:24.376Z,98528.72
2019-01-30T05:07:53.681Z,98535.11
2019-01-30T05:10:23.049Z,98530.73
2019-01-30T05:12:52.393Z,98537.10
2019-01-30T05:15:21.836Z,98530.20
2019-01-30T05:17:51.367Z,98526.38
2019-01-30T05:20:21.812Z,98525.86
2019-01-30T05:22:51.179Z,98530.54
2019-01-30T05:25:21.045Z,98528.16
2019-01-30T05:27:50.310Z,98525.98
2019-01-30T05:30:25.781Z,98530.03
2019-01-30T05:32:55.126Z,98533.81
2019-01-30T05:35:24.917Z,98531.98
2019-01-30T05:37:54.339Z,98534.65
2019-01-30T05:40:24.469Z,98536.86
2019-01-30T05:42:53.752Z,98539.59
2019-01-30T05:45:23.641Z,98539.59
2019-01-30T05:47:52.948Z,98538.38
2019-01-30T05:50:22.237Z,98544.47
2019-01-30T05:52:51.555Z,98540.80
2019-01-30T05:55:20.906Z,98542.94
2019-01-30T05:57:50.281Z,98542.20
2019-01-30T06:00:24.949Z,98539.81
2019-01-30T06:02:54.667Z,98536.70
2019-01-30T06:05:24.092Z,98530.75
2019-01-30T06:07:53.393Z,98526.31
2019-01-30T06:10:22.740Z,98521.05
2019-01-30T06:12:52.119Z,98524.20
2019-01-30T06:15:21.741Z,98521.13
2019-01-30T06:17:51.040Z,98520.87
2019-01-30T06:20:23.095Z,98520.38
2019-01-30T06:22:52.756Z,98522.35
2019-01-30T06:25:22.507Z,98518.04
2019-01-30T06:27:51.962Z,98516.08
2019-01-30T06:30:23.880Z,98515.07
2019-01-30T06:32:53.311Z,98515.95
2019-01-30T06:35:22.889Z,98517.94
2019-01-30T06:37:52.551Z,98513.07
2019-01-30T06:40:24.566Z,98508.09
2019-01-30T06:42:53.866Z,98496.75
2019-01-30T06:45:24.268Z,98497.31
2019-01-30T06:47:53.915Z,98495.12
2019-01-30T06:50:23.290Z,98494.39
2019-01-30T06:52:52.671Z,98489.05
2019-01-30T06:55:22.039Z,98490.13
2019-01-30T06:57:51.323Z,98488.22
2019-01-30T07:00:25.639Z,98488.27
2019-01-30T07:02:56.260Z,98487.19
2019-01-30T07:05:25.909Z,98484.02
2019-01-30T07:07:55.191Z,98487.25
2019-01-30T07:10:26.649Z,98480.10
2019-01-30T07:12:56.390Z,98487.98
2019-01-30T07:15:25.996Z,98487.36
2019-01-30T07:17:55.312Z,98497.72
2019-01-30T07:20:24.683Z,98497.83
2019-01-30T07:22:54.091Z,98492.97
2019-01-30T07:25:23.746Z,98488.66
2019-01-30T07:27:53.119Z,98488.48
2019-01-30T07:30:25.415Z,98490.48
2019-01-30T07:32:54.701Z,98489.67
2019-01-30T07:35:24.025Z,98487.80
2019-01-30T07:37:53.643Z,98493.70
2019-01-30T07:40:23.100Z,98487.02
2019-01-30T07:42:52.554Z,98492.50
2019-01-30T07:45:24.879Z,98490.30
2019-01-30T07:47:54.645Z,98487.58
2019-01-30T07:50:24.323Z,98492.33
2019-01-30T07:52:53.957Z,98487.92
2019-01-30T07:55:23.503Z,98493.80
2019-01-30T07:57:53.114Z,98485.71
2019-01-30T08:00:25.497Z,98489.28
2019-01-30T08:02:54.860Z,98485.59
2019-01-30T08:05:24.353Z,98486.38
2019-01-30T08:07:53.719Z,98481.89
2019-01-30T08:10:23.079Z,98481.59
2019-01-30T08:12:52.544Z,98486.84
2019-01-30T08:15:24.009Z,98481.19
2019-01-30T08:17:53.379Z,98476.37
2019-01-30T08:20:23.613Z,98474.30
2019-01-30T08:22:53.081Z,98476.37
2019-01-30T08:25:23.863Z,98480.88
2019-01-30T08:27:53.722Z,98473.48
2019-01-30T08:30:30.819Z,98474.80
2019-01-30T08:33:05.603Z,98479.95
2019-01-30T08:35:33.422Z,98480.34
2019-01-30T08:38:02.886Z,98483.26
2019-01-30T08:40:32.819Z,98487.14
2019-01-30T08:43:02.270Z,98488.17
2019-01-30T08:45:32.203Z,98481.73
2019-01-30T08:48:01.601Z,98485.16
2019-01-30T08:50:31.032Z,98486.95
2019-01-30T08:53:00.494Z,98485.25
2019-01-30T08:55:29.888Z,98489.58
2019-01-30T08:57:59.225Z,98484.70
2019-01-30T09:00:30.264Z,98493.02
2019-01-30T09:02:59.690Z,98489.79
2019-01-30T09:05:29.071Z,98500.43
2019-01-30T09:07:58.465Z,98497.32
2019-01-30T09:10:29.313Z,98497.36
2019-01-30T09:12:58.709Z,98500.59
2019-01-30T09:15:29.907Z,98493.12
2019-01-30T09:17:59.327Z,98496.75
2019-01-30T09:20:28.655Z,98496.91
2019-01-30T09:22:58.002Z,98494.42
2019-01-30T09:25:29.861Z,98496.59
2019-01-30T09:28:01.217Z,98494.58
2019-01-30T09:30:33.612Z,98499.27
2019-01-30T09:33:03.486Z,98495.91
2019-01-30T09:35:32.845Z,98493.48
2019-01-30T09:38:02.242Z,98500.88
2019-01-30T09:40:31.639Z,98499.66
2019-01-30T09:43:00.987Z,98493.33
2019-01-30T09:45:30.377Z,98495.95
2019-01-30T09:47:59.665Z,98493.27
2019-01-30T09:50:29.054Z,98502.80
2019-01-30T09:52:58.592Z,98498.30
2019-01-30T09:55:28.199Z,98501.19
2019-01-30T09:57:57.517Z,98503.08
2019-01-30T10:00:32.687Z,98508.70
2019-01-30T10:03:02.647Z,98514.07
2019-01-30T10:05:31.972Z,98510.26
2019-01-30T10:08:01.251Z,98514.07
2019-01-30T10:10:38.710Z,98510.07
2019-01-30T10:13:09.245Z,98510.20
2019-01-30T10:15:41.018Z,98517.06
2019-01-30T10:18:11.542Z,98514.66
2019-01-30T10:20:43.321Z,98518.06
2019-01-30T10:23:12.765Z,98517.27
2019-01-30T10:25:42.162Z,98519.48
2019-01-30T10:28:16.707Z,98521.07
2019-01-30T10:30:46.055Z,98516.18
2019-01-30T10:33:15.502Z,98515.50
2019-01-30T10:35:45.255Z,98518.80
2019-01-30T10:38:14.645Z,98513.67
2019-01-30T10:40:44.055Z,98515.09
2019-01-30T10:43:14.198Z,98510.53
2019-01-30T10:45:44.553Z,98506.74
2019-01-30T10:48:14.345Z,98507.03
2019-01-30T10:50:43.638Z,98506.59
2019-01-30T10:53:13.413Z,98512.48
2019-01-30T10:55:42.778Z,98503.55
2019-01-30T10:58:14.843Z,98505.69
2019-01-30T11:00:49.939Z,98501.09
2019-01-30T11:03:20.013Z,98500.75
2019-01-30T11:05:49.684Z,98506.70
2019-01-30T11:08:19.445Z,98502.27
2019-01-30T11:10:50.778Z,98504.30
2019-01-30T11:13:19.964Z,98505.80
2019-01-30T11:15:49.289Z,98503.62
2019-01-30T11:18:19.158Z,98508.20
2019-01-30T11:20:48.782Z,98508.61
2019-01-30T11:23:18.203Z,98511.62
2019-01-30T11:25:49.068Z,98508.86
2019-01-30T11:28:18.374Z,98513.55
2019-01-30T11:30:47.765Z,98509.14
2019-01-30T11:33:17.134Z,98513.33
2019-01-30T11:35:46.521Z,98507.09
2019-01-30T11:38:15.998Z,98508.11
2019-01-30T11:40:45.452Z,98512.13
2019-01-30T11:43:14.838Z,98516.03
2019-01-30T11:45:45.484Z,98513.98
2019-01-30T11:48:15.305Z,98511.72
2019-01-30T11:50:44.627Z,98506.42
2019-01-30T11:53:14.048Z,98508.07
2019-01-30T11:55:43.599Z,98505.94
2019-01-30T11:58:12.947Z,98507.16
2019-01-30T12:00:43.892Z,98515.73
2019-01-30T12:03:13.269Z,98508.58
2019-01-30T12:05:43.589Z,98508.20
2019-01-30T12:08:12.971Z,98515.28
2019-01-30T12:10:42.272Z,98513.40
2019-01-30T12:13:11.685Z,98513.31
2019-01-30T12:15:40.971Z,98517.52
2019-01-30T12:18:10.321Z,98513.84
2019-01-30T12:20:39.637Z,98520.71
2019-01-30T12:23:08.989Z,98521.16
2019-01-30T12:25:38.299Z,98515.78
2019-01-30T12:28:07.675Z,98512.24
2019-01-30T12:30:36.980Z,98516.59
2019-01-30T12:33:06.280Z,98520.88
2019-01-30T12:35:35.647Z,98517.31
2019-01-30T12:38:05.786Z,98525.02
2019-01-30T12:40:35.179Z,98517.11
2019-01-30T12:43:05.890Z,98527.20
2019-01-30T12:45:37.756Z,98528.71
2019-01-30T12:48:10.673Z,98526.17
2019-01-30T12:50:39.524Z,98529.19
2019-01-30T12:53:08.830Z,98535.57
2019-01-30T12:55:38.387Z,98538.02
2019-01-30T12:58:07.835Z,98531.50
2019-01-30T13:00:40.208Z,98543.52
2019-01-30T13:03:09.568Z,98545.53
2019-01-30T13:05:39.511Z,98544.05
2019-01-30T13:08:09.029Z,98548.64
2019-01-30T13:10:38.328Z,98542.75
2019-01-30T13:13:07.704Z,98545.58
2019-01-30T13:15:36.981Z,98547.53
2019-01-30T13:18:17.628Z,98548.75
2019-01-30T13:20:37.835Z,98552.59
2019-01-30T13:23:07.225Z,98552.37
2019-01-30T13:25:37.229Z,98550.89
2019-01-30T13:28:07.305Z,98555.33
2019-01-30T13:30:39.027Z,98552.97
2019-01-30T13:33:09.519Z,98552.87
2019-01-30T13:35:39.253Z,98554.30
2019-01-30T13:38:08.727Z,98563.03
2019-01-30T13:40:39.267Z,98559.09
2019-01-30T13:43:09.235Z,98565.02
2019-01-30T13:45:38.683Z,98565.84
2019-01-30T13:48:10.661Z,98566.74
2019-01-30T13:50:39.948Z,98565.34
2019-01-30T13:53:09.346Z,98574.13
2019-01-30T13:55:38.720Z,98570.92
2019-01-30T13:58:08.125Z,98567.66
2019-01-30T14:00:39.633Z,98574.75
2019-01-30T14:03:09.097Z,98579.00
2019-01-30T14:05:38.573Z,98582.58
2019-01-30T14:08:08.509Z,98588.30
2019-01-30T14:10:38.297Z,98591.84
2019-01-30T14:13:07.643Z,98597.46
2019-01-30T14:15:36.948Z,98601.91
2019-01-30T14:18:06.636Z,98602.02
2019-01-30T14:20:35.957Z,98611.44
2019-01-30T14:23:05.356Z,98612.16
2019-01-30T14:25:35.135Z,98615.89
2019-01-30T14:28:05.249Z,98614.22
2019-01-30T14:30:36.575Z,98621.80
2019-01-30T14:33:06.095Z,98624.45
2019-01-30T14:35:36.868Z,98631.91
2019-01-30T14:38:06.347Z,98630.81
2019-01-30T14:40:35.696Z,98642.91
2019-01-30T14:43:05.600Z,98647.09
2019-01-30T14:45:34.930Z,98654.64
2019-01-30T14:48:04.723Z,98654.45
2019-01-30T14:50:34.371Z,98653.95
2019-01-30T14:53:03.983Z,98658.94
2019-01-30T14:55:33.358Z,98664.88
2019-01-30T14:58:03.216Z,98674.02
2019-01-30T15:00:33.773Z,98678.09
2019-01-30T15:03:03.693Z,98677.75
2019-01-30T15:05:33.497Z,98685.25
2019-01-30T15:08:03.022Z,98690.19
2019-01-30T15:10:32.420Z,98697.48
2019-01-30T15:13:01.847Z,98706.27
2019-01-30T15:15:32.669Z,98704.63
2019-01-30T15:18:02.857Z,98713.80
2019-01-30T15:20:34.701Z,98717.81
2019-01-30T15:23:05.160Z,98718.85
2019-01-30T15:25:35.743Z,98721.00
2019-01-30T15:28:05.821Z,98725.95
2019-01-30T15:30:37.808Z,98726.98
2019-01-30T15:33:07.669Z,98736.00
2019-01-30T15:35:37.050Z,98731.47
2019-01-30T15:38:08.006Z,98734.23
2019-01-30T15:40:37.384Z,98735.58
2019-01-30T15:43:06.858Z,98747.38
2019-01-30T15:45:36.155Z,98744.28
2019-01-30T15:48:05.658Z,98753.38
2019-01-30T15:50:37.607Z,98759.17
2019-01-30T15:53:09.675Z,98757.91
2019-01-30T15:55:39.056Z,98768.59
2019-01-30T15:58:10.532Z,98772.88
2019-01-30T16:00:48.560Z,98765.31
2019-01-30T16:03:17.887Z,98768.62
2019-01-30T16:05:47.349Z,98769.92
2019-01-30T16:08:16.696Z,98729.36
2019-01-30T16:10:46.019Z,98783.19
2019-01-30T16:13:15.352Z,98777.12
2019-01-30T16:15:47.818Z,98785.79
2019-01-30T16:18:18.697Z,98794.78
2019-01-30T16:20:50.292Z,98794.98
2019-01-30T16:23:19.735Z,98794.48
2019-01-30T16:25:49.196Z,98799.32
2019-01-30T16:28:18.597Z,98797.73
2019-01-30T16:30:47.900Z,98803.23
2019-01-30T16:33:17.264Z,98807.23
2019-01-30T16:35:55.620Z,98813.98
2019-01-30T16:38:18.334Z,98821.22
2019-01-30T16:40:47.659Z,98824.89
2019-01-30T16:43:17.104Z,98828.91
2019-01-30T16:45:46.427Z,98831.28
2019-01-30T16:48:15.753Z,98829.51
2019-01-30T16:50:45.128Z,98834.61
2019-01-30T16:53:14.520Z,98843.01
2019-01-30T16:55:43.880Z,98842.92
2019-01-30T16:58:14.148Z,98851.06
2019-01-30T17:00:46.529Z,98853.69
2019-01-30T17:03:14.584Z,98852.84
2019-01-30T17:05:43.938Z,98858.54
2019-01-30T17:08:13.345Z,98860.63
2019-01-30T17:10:42.682Z,98863.61
2019-01-30T17:13:12.802Z,98866.93
2019-01-30T17:15:42.342Z,98869.62
2019-01-30T17:18:13.168Z,98871.80
2019-01-30T17:20:42.562Z,98874.88
2019-01-30T17:23:11.923Z,98880.48
2019-01-30T17:25:41.478Z,98874.81
2019-01-30T17:28:10.848Z,98885.09
2019-01-30T17:30:43.020Z,98890.98
2019-01-30T17:33:12.315Z,98884.84
2019-01-30T17:35:42.386Z,98892.05
2019-01-30T17:38:11.885Z,98899.58
2019-01-30T17:40:41.769Z,98896.27
2019-01-30T17:43:11.210Z,98901.73
2019-01-30T17:45:40.524Z,98910.13
2019-01-30T17:48:11.266Z,98896.14
2019-01-30T17:50:41.207Z,98912.98
2019-01-30T17:53:10.681Z,98911.44
2019-01-30T17:55:40.341Z,98909.64
2019-01-30T17:58:10.205Z,98910.59
2019-01-30T18:00:59.590Z,98914.27
2019-01-30T18:03:28.907Z,98917.13
2019-01-30T18:05:58.343Z,98917.84
2019-01-30T18:08:27.809Z,98921.02
2019-01-30T18:10:57.107Z,98917.23
2019-01-30T18:13:26.497Z,98921.84
2019-01-30T18:15:55.790Z,98921.95
2019-01-30T18:18:25.161Z,98926.83
2019-01-30T18:20:54.457Z,98930.72
2019-01-30T18:23:23.963Z,98929.77
2019-01-30T18:25:53.321Z,98928.72
2019-01-30T18:28:23.203Z,98928.26
2019-01-30T18:30:52.640Z,98933.93
2019-01-30T18:33:21.961Z,98932.63
2019-01-30T18:35:51.528Z,98938.80
2019-01-30T18:38:20.814Z,98934.04
2019-01-30T18:40:50.137Z,98938.41
2019-01-30T18:43:19.436Z,98939.48
2019-01-30T18:45:48.807Z,98935.48
2019-01-30T18:48:18.495Z,98940.33
2019-01-30T18:50:47.933Z,98941.85
2019-01-30T18:53:17.524Z,98898.75
2019-01-30T18:55:47.033Z,98941.26
2019-01-30T18:58:16.476Z,98943.88
2019-01-30T19:00:45.944Z,98940.20
2019-01-30T19:03:15.875Z,98943.41
2019-01-30T19:05:45.451Z,98947.42
2019-01-30T19:08:14.742Z,98952.14
2019-01-30T19:10:44.132Z,98954.98
2019-01-30T19:13:13.430Z,98948.72
2019-01-30T19:15:42.748Z,98953.94
2019-01-30T19:18:12.129Z,98947.53
2019-01-30T19:20:44.565Z,98948.62
2019-01-30T19:23:13.945Z,98948.13
2019-01-30T19:25:43.515Z,98955.13
2019-01-30T19:28:12.803Z,98955.02
2019-01-30T19:30:45.028Z,98952.77
2019-01-30T19:33:13.759Z,98954.52
2019-01-30T19:35:43.141Z,98950.05
2019-01-30T19:38:12.839Z,98952.66
2019-01-30T19:40:42.226Z,98957.61
2019-01-30T19:43:11.615Z,98954.09
2019-01-30T19:45:41.004Z,98953.25
2019-01-30T19:48:10.412Z,98955.01
2019-01-30T19:50:39.811Z,98965.11
2019-01-30T19:53:09.203Z,98960.95
2019-01-30T19:55:38.561Z,98965.09
2019-01-30T19:58:08.163Z,98962.13
2019-01-30T20:00:40.488Z,98969.95
2019-01-30T20:03:13.025Z,98962.27
2019-01-30T20:05:42.662Z,98965.21
2019-01-30T20:08:12.430Z,98968.06
2019-01-30T20:10:42.213Z,98970.67
2019-01-30T20:13:11.660Z,98970.90
2019-01-30T20:15:40.996Z,98968.66
2019-01-30T20:18:10.441Z,98963.19
2019-01-30T20:20:39.855Z,98957.98
2019-01-30T20:23:10.706Z,98970.52
2019-01-30T20:25:44.001Z,98972.17
2019-01-30T20:28:13.534Z,98976.94
2019-01-30T20:30:42.933Z,98980.37
2019-01-30T20:33:12.347Z,98985.48
2019-01-30T20:35:41.708Z,98983.94
2019-01-30T20:38:11.139Z,98988.08
2019-01-30T20:40:40.466Z,98989.27
2019-01-30T20:43:09.823Z,98988.19
2019-01-30T20:45:39.150Z,98990.56
2019-01-30T20:48:08.573Z,98995.89
2019-01-30T20:50:38.571Z,99002.77
2019-01-30T20:53:07.994Z,99001.96
2019-01-30T20:55:38.110Z,99005.99
2019-01-30T20:58:07.514Z,99013.81
2019-01-30T21:00:38.532Z,99011.78
2019-01-30T21:03:07.900Z,99012.97
2019-01-30T21:05:37.388Z,99012.13
2019-01-30T21:08:07.239Z,99018.05
2019-01-30T21:10:38.824Z,99015.45
2019-01-30T21:13:08.604Z,99021.61
2019-01-30T21:15:38.476Z,99023.88
2019-01-30T21:18:08.116Z,99021.12
2019-01-30T21:20:37.408Z,99027.08
2019-01-30T21:23:07.157Z,99024.23
2019-01-30T21:25:36.454Z,99029.79
2019-01-30T21:28:06.234Z,99027.80
2019-01-30T21:30:37.980Z,99030.50
2019-01-30T21:33:07.549Z,99026.97
2019-01-30T21:35:37.160Z,99024.13
2019-01-30T21:38:07.360Z,99028.38
2019-01-30T21:40:36.664Z,99031.81
2019-01-30T21:43:06.317Z,99030.64
2019-01-30T21:45:35.676Z,99033.48
2019-01-30T21:48:05.721Z,99030.41
2019-01-30T21:50:35.022Z,99035.72
2019-01-30T21:53:04.765Z,99035.97
2019-01-30T21:55:34.097Z,99040.59
2019-01-30T21:58:03.405Z,99040.34
2019-01-30T22:00:32.884Z,99041.77
2019-01-30T22:03:02.194Z,99044.38
2019-01-30T22:05:31.542Z,99037.86
2019-01-30T22:08:01.497Z,99042.94
2019-01-30T22:10:31.351Z,99041.98
2019-01-30T22:13:00.910Z,99043.75
2019-01-30T22:15:30.258Z,99048.47
2019-01-30T22:17:59.565Z,99047.31
2019-01-30T22:20:28.905Z,99055.48
2019-01-30T22:22:58.158Z,99058.30
2019-01-30T22:25:27.777Z,99059.48
2019-01-30T22:27:57.163Z,99066.56
2019-01-30T22:30:32.064Z,99068.11
2019-01-30T22:33:01.697Z,99073.88
2019-01-30T22:35:31.437Z,99073.77
2019-01-30T22:38:11.499Z,99070.55
2019-01-30T22:40:31.938Z,99074.06
2019-01-30T22:43:01.513Z,99077.95
2019-01-30T22:45:30.935Z,99084.34
2019-01-30T22:48:00.219Z,99084.66
2019-01-30T22:50:29.521Z,99086.09
2019-01-30T22:52:58.881Z,99086.09
2019-01-30T22:55:28.254Z,99093.55
2019-01-30T22:57:57.527Z,99090.25
2019-01-30T23:01:03.215Z,99087.52
2019-01-30T23:03:47.596Z,99092.02
2019-01-30T23:06:53.186Z,99093.77
2019-01-30T23:09:46.790Z,99094.16
2019-01-30T23:12:37.239Z,99101.47
2019-01-30T23:15:27.738Z,99105.45
2019-01-30T23:18:16.519Z,99104.17
2019-01-30T23:20:48.856Z,99106.50
2019-01-30T23:23:23.810Z,99103.54
2019-01-30T23:26:04.979Z,99107.29
2019-01-30T23:28:40.481Z,99101.96
2019-01-30T23:31:24.609Z,99108.91
2019-01-30T23:34:03.213Z,99106.66
2019-01-30T23:36:41.573Z,99117.78
2019-01-30T23:39:34.386Z,99109.33
2019-01-30T23:42:41.716Z,99109.33
2019-01-30T23:45:28.953Z,99116.37
2019-01-30T23:48:13.041Z,99123.36
2019-01-30T23:51:05.731Z,99123.20
2019-01-30T23:53:43.646Z,99126.84
2019-01-30T23:56:18.417Z,99122.25
2019-01-30T23:59:17.844Z,99130.61
